Charlotte County, FL

4:08 PM EDT on May 25, 2015 (GMT -0400)
Charlotte County | | Change Station
CLOSE
Current Station
Airport
Location: Punta Gorda,
Elevation: 26 ft
Nearby Weather Stations

Elev 26 ft 26.92 °N, 81.99 °W | Updated 6 minutes ago

Partly Cloudy
Partly Cloudy
85 °F
Feels Like 92 °F
N
14
Wind Variable Wind from ENE

Today
High -- | Low -- °F
--% Chance of Precip.
Yesterday
High -- | Low -- °F
Precip. -- in
6:35 AM 8:14 PM
Waxing Crescent, 51% visible
Pressure 30.12 in
Visibility 10.0 miles
Clouds Few 10000 ft
Few 12000 ft
Heat Index 92 °F
Dew Point 74 °F
Humidity 69%
Rainfall 0.04 in
Snow Depth Not available.
UV 10 out of 12
Pollen 4.10 out of 12
Air Quality Not available.
Flu Activity Sporadic
SPECI KPGD 252002Z 06012KT 10SM -TSRA FEW100 FEW120 29/23 A3012 RMK AO2 RAB1954 TSB1956 P0000 T02940233

More Conditions Fewer Conditions

Pressure 30.12 in
Visibility 10.0 miles
Clouds Few 10000 ft
Few 12000 ft
Heat Index 92 °F
Dew Point 74 °F
Humidity 69%
Rainfall 0.04 in
Snow Depth Not available.
UV 10 out of 12
Pollen 4.10 out of 12
Air Quality Not available.
Flu Activity Sporadic
SPECI KPGD 252002Z 06012KT 10SM -TSRA FEW100 FEW120 29/23 A3012 RMK AO2 RAB1954 TSB1956 P0000 T02940233

More Conditions Fewer Conditions

10-Day Weather Forecast

Almanac

Astronomy

May. 25, 2015 Rise Set
Actual Time
Civil Twilight
Nautical Twilight
Astronomical Twilight
Moon
Length of Visible Light
Length of Day
Tomorrow will be .
, % of the Moon is Illuminated

Today's Extremes

State Highs State Lows

Community

WunderPhotos

Upload Photos

1,824,115 photos uploaded!

WunderBlogs® & News

Nearby

Air Quality

  Air Quality AQ Index Pollutant
Not available.

Snow Depth

Station Depth Elevation

Earthquake Activity

City Distance Mag. Time & Date
Minimum magnitude displayed is 2.5.

Coastal Water Temperatures

Place Temperature

Stations

Nearby Weather Stations

Station Location Temp. Windchill Dew Point Humidity Wind Precip. Elev Updated Type